sensor_id;sensor_type;location;lat;lon;timestamp;P1;durP1;ratioP1;P2;durP2;ratioP2
23802;SDS011;12082;51.786;6.018;2023-06-10T00:01:12;53.40;;;50.47;;
23802;SDS011;12082;51.786;6.018;2023-06-10T00:03:37;57.00;;;53.73;;
23802;SDS011;12082;51.786;6.018;2023-06-10T00:06:04;57.40;;;54.20;;
23802;SDS011;12082;51.786;6.018;2023-06-10T00:08:30;61.47;;;57.87;;
23802;SDS011;12082;51.786;6.018;2023-06-10T00:10:56;64.93;;;61.43;;
23802;SDS011;12082;51.786;6.018;2023-06-10T00:13:22;59.57;;;56.37;;
23802;SDS011;12082;51.786;6.018;2023-06-10T00:15:47;44.90;;;42.30;;
23802;SDS011;12082;51.786;6.018;2023-06-10T00:18:13;30.10;;;28.20;;
23802;SDS011;12082;51.786;6.018;2023-06-10T00:20:39;30.50;;;28.30;;
23802;SDS011;12082;51.786;6.018;2023-06-10T00:23:05;28.37;;;26.57;;
23802;SDS011;12082;51.786;6.018;2023-06-10T00:25:33;27.93;;;26.07;;
23802;SDS011;12082;51.786;6.018;2023-06-10T00:27:59;28.73;;;26.77;;
23802;SDS011;12082;51.786;6.018;2023-06-10T00:30:24;29.13;;;27.30;;
23802;SDS011;12082;51.786;6.018;2023-06-10T00:32:50;29.43;;;27.43;;
23802;SDS011;12082;51.786;6.018;2023-06-10T00:35:15;28.83;;;27.00;;
23802;SDS011;12082;51.786;6.018;2023-06-10T00:37:41;29.03;;;26.93;;
23802;SDS011;12082;51.786;6.018;2023-06-10T00:40:07;28.60;;;26.77;;
23802;SDS011;12082;51.786;6.018;2023-06-10T00:42:34;31.40;;;29.00;;
23802;SDS011;12082;51.786;6.018;2023-06-10T00:44:59;29.83;;;27.63;;
23802;SDS011;12082;51.786;6.018;2023-06-10T00:47:25;27.50;;;25.20;;
23802;SDS011;12082;51.786;6.018;2023-06-10T00:49:52;25.43;;;23.73;;
23802;SDS011;12082;51.786;6.018;2023-06-10T00:52:18;25.13;;;23.33;;
23802;SDS011;12082;51.786;6.018;2023-06-10T00:54:45;23.93;;;22.13;;
23802;SDS011;12082;51.786;6.018;2023-06-10T00:57:11;23.03;;;21.20;;
23802;SDS011;12082;51.786;6.018;2023-06-10T00:59:39;22.83;;;21.13;;
23802;SDS011;12082;51.786;6.018;2023-06-10T01:02:05;22.53;;;20.50;;
23802;SDS011;12082;51.786;6.018;2023-06-10T01:04:32;20.87;;;19.27;;
23802;SDS011;12082;51.786;6.018;2023-06-10T01:12:19;19.30;;;17.80;;
23802;SDS011;12082;51.786;6.018;2023-06-10T01:14:51;18.77;;;17.37;;
23802;SDS011;12082;51.786;6.018;2023-06-10T01:17:17;19.60;;;18.00;;
23802;SDS011;12082;51.786;6.018;2023-06-10T01:19:43;18.97;;;17.47;;
23802;SDS011;12082;51.786;6.018;2023-06-10T01:22:09;19.23;;;17.63;;
23802;SDS011;12082;51.786;6.018;2023-06-10T01:24:35;17.10;;;15.80;;
23802;SDS011;12082;51.786;6.018;2023-06-10T01:27:01;17.73;;;16.03;;
23802;SDS011;12082;51.786;6.018;2023-06-10T01:29:37;17.10;;;15.80;;
23802;SDS011;12082;51.786;6.018;2023-06-10T01:32:21;19.10;;;17.47;;
23802;SDS011;12082;51.786;6.018;2023-06-10T01:34:57;19.13;;;17.53;;
23802;SDS011;12082;51.786;6.018;2023-06-10T01:37:24;17.90;;;16.37;;
23802;SDS011;12082;51.786;6.018;2023-06-10T01:39:51;18.37;;;16.67;;
23802;SDS011;12082;51.786;6.018;2023-06-10T01:42:19;19.73;;;17.83;;
23802;SDS011;12082;51.786;6.018;2023-06-10T01:44:46;20.50;;;18.47;;
23802;SDS011;12082;51.786;6.018;2023-06-10T01:47:11;19.37;;;17.63;;
23802;SDS011;12082;51.786;6.018;2023-06-10T01:49:37;20.50;;;18.60;;
23802;SDS011;12082;51.786;6.018;2023-06-10T01:52:03;19.27;;;17.67;;
23802;SDS011;12082;51.786;6.018;2023-06-10T01:54:28;19.37;;;17.67;;
23802;SDS011;12082;51.786;6.018;2023-06-10T01:56:54;21.23;;;19.13;;
23802;SDS011;12082;51.786;6.018;2023-06-10T01:59:20;20.53;;;18.53;;
23802;SDS011;12082;51.786;6.018;2023-06-10T02:01:45;20.77;;;18.93;;
23802;SDS011;12082;51.786;6.018;2023-06-10T02:04:11;20.20;;;18.30;;
23802;SDS011;12082;51.786;6.018;2023-06-10T02:06:36;20.97;;;18.97;;
23802;SDS011;12082;51.786;6.018;2023-06-10T02:09:02;19.93;;;18.23;;
23802;SDS011;12082;51.786;6.018;2023-06-10T02:11:28;18.57;;;16.97;;
23802;SDS011;12082;51.786;6.018;2023-06-10T02:13:54;18.17;;;16.47;;
23802;SDS011;12082;51.786;6.018;2023-06-10T02:16:20;20.00;;;18.07;;
23802;SDS011;12082;51.786;6.018;2023-06-10T02:18:46;19.90;;;17.87;;
23802;SDS011;12082;51.786;6.018;2023-06-10T02:21:13;18.97;;;17.30;;
23802;SDS011;12082;51.786;6.018;2023-06-10T02:23:39;18.30;;;16.63;;
23802;SDS011;12082;51.786;6.018;2023-06-10T02:26:05;20.20;;;18.27;;
23802;SDS011;12082;51.786;6.018;2023-06-10T02:28:30;18.60;;;17.00;;
23802;SDS011;12082;51.786;6.018;2023-06-10T02:30:56;21.43;;;18.40;;
23802;SDS011;12082;51.786;6.018;2023-06-10T02:33:22;19.80;;;17.83;;
23802;SDS011;12082;51.786;6.018;2023-06-10T02:35:49;19.97;;;17.80;;
23802;SDS011;12082;51.786;6.018;2023-06-10T02:38:14;19.93;;;18.13;;
23802;SDS011;12082;51.786;6.018;2023-06-10T02:40:40;19.60;;;17.80;;
23802;SDS011;12082;51.786;6.018;2023-06-10T02:43:05;18.37;;;16.93;;
23802;SDS011;12082;51.786;6.018;2023-06-10T02:45:31;18.77;;;16.93;;
23802;SDS011;12082;51.786;6.018;2023-06-10T02:47:56;18.73;;;17.13;;
23802;SDS011;12082;51.786;6.018;2023-06-10T02:50:22;19.10;;;17.50;;
23802;SDS011;12082;51.786;6.018;2023-06-10T02:52:48;18.87;;;17.10;;
23802;SDS011;12082;51.786;6.018;2023-06-10T02:55:13;19.60;;;17.83;;
23802;SDS011;12082;51.786;6.018;2023-06-10T02:57:39;18.97;;;17.10;;
23802;SDS011;12082;51.786;6.018;2023-06-10T03:00:05;18.87;;;17.33;;
23802;SDS011;12082;51.786;6.018;2023-06-10T03:02:35;18.80;;;17.00;;
23802;SDS011;12082;51.786;6.018;2023-06-10T03:05:01;19.13;;;17.53;;
23802;SDS011;12082;51.786;6.018;2023-06-10T03:07:27;20.57;;;18.63;;
23802;SDS011;12082;51.786;6.018;2023-06-10T03:09:53;19.57;;;17.77;;
23802;SDS011;12082;51.786;6.018;2023-06-10T03:12:18;19.37;;;17.63;;
23802;SDS011;12082;51.786;6.018;2023-06-10T03:14:44;20.13;;;18.33;;
23802;SDS011;12082;51.786;6.018;2023-06-10T03:17:10;19.07;;;17.47;;
23802;SDS011;12082;51.786;6.018;2023-06-10T03:19:35;19.37;;;17.77;;
23802;SDS011;12082;51.786;6.018;2023-06-10T03:24:38;20.93;;;19.13;;
23802;SDS011;12082;51.786;6.018;2023-06-10T03:27:08;20.57;;;18.80;;
23802;SDS011;12082;51.786;6.018;2023-06-10T03:29:34;22.47;;;20.37;;
23802;SDS011;12082;51.786;6.018;2023-06-10T03:32:00;20.73;;;18.70;;
23802;SDS011;12082;51.786;6.018;2023-06-10T03:34:26;21.63;;;19.60;;
23802;SDS011;12082;51.786;6.018;2023-06-10T03:36:52;22.43;;;20.60;;
23802;SDS011;12082;51.786;6.018;2023-06-10T03:39:18;22.60;;;20.70;;
23802;SDS011;12082;51.786;6.018;2023-06-10T03:41:43;22.40;;;20.30;;
23802;SDS011;12082;51.786;6.018;2023-06-10T03:44:09;20.50;;;18.83;;
23802;SDS011;12082;51.786;6.018;2023-06-10T03:46:34;21.40;;;19.50;;
23802;SDS011;12082;51.786;6.018;2023-06-10T03:49:00;22.37;;;20.20;;
23802;SDS011;12082;51.786;6.018;2023-06-10T03:51:26;20.30;;;18.47;;
23802;SDS011;12082;51.786;6.018;2023-06-10T03:53:52;21.43;;;19.57;;
23802;SDS011;12082;51.786;6.018;2023-06-10T03:56:17;19.63;;;18.07;;
23802;SDS011;12082;51.786;6.018;2023-06-10T03:58:43;22.27;;;20.23;;
23802;SDS011;12082;51.786;6.018;2023-06-10T04:01:09;21.60;;;19.53;;
23802;SDS011;12082;51.786;6.018;2023-06-10T04:03:35;21.20;;;18.93;;
23802;SDS011;12082;51.786;6.018;2023-06-10T04:06:01;19.43;;;17.73;;
23802;SDS011;12082;51.786;6.018;2023-06-10T04:08:27;19.33;;;17.50;;
23802;SDS011;12082;51.786;6.018;2023-06-10T04:10:53;19.97;;;17.97;;
23802;SDS011;12082;51.786;6.018;2023-06-10T04:13:18;17.83;;;16.33;;
23802;SDS011;12082;51.786;6.018;2023-06-10T04:15:44;18.50;;;16.70;;
23802;SDS011;12082;51.786;6.018;2023-06-10T04:18:10;18.80;;;17.13;;
23802;SDS011;12082;51.786;6.018;2023-06-10T04:20:35;18.00;;;16.23;;
23802;SDS011;12082;51.786;6.018;2023-06-10T04:23:01;18.37;;;16.37;;
23802;SDS011;12082;51.786;6.018;2023-06-10T04:25:26;17.60;;;15.87;;
23802;SDS011;12082;51.786;6.018;2023-06-10T04:27:53;16.90;;;15.30;;
23802;SDS011;12082;51.786;6.018;2023-06-10T04:30:19;18.17;;;16.27;;
23802;SDS011;12082;51.786;6.018;2023-06-10T04:32:45;16.40;;;15.03;;
23802;SDS011;12082;51.786;6.018;2023-06-10T04:35:12;16.63;;;15.03;;
23802;SDS011;12082;51.786;6.018;2023-06-10T04:37:39;17.63;;;16.03;;
23802;SDS011;12082;51.786;6.018;2023-06-10T04:40:05;16.13;;;14.63;;
23802;SDS011;12082;51.786;6.018;2023-06-10T04:42:31;16.70;;;15.27;;
23802;SDS011;12082;51.786;6.018;2023-06-10T04:44:57;17.30;;;15.57;;
23802;SDS011;12082;51.786;6.018;2023-06-10T04:47:22;18.13;;;15.90;;
23802;SDS011;12082;51.786;6.018;2023-06-10T04:49:48;16.37;;;15.00;;
23802;SDS011;12082;51.786;6.018;2023-06-10T04:52:13;18.73;;;14.97;;
23802;SDS011;12082;51.786;6.018;2023-06-10T04:54:39;15.67;;;14.27;;
23802;SDS011;12082;51.786;6.018;2023-06-10T04:57:05;15.20;;;13.70;;
23802;SDS011;12082;51.786;6.018;2023-06-10T04:59:32;17.40;;;14.93;;
23802;SDS011;12082;51.786;6.018;2023-06-10T05:01:58;15.83;;;14.33;;
23802;SDS011;12082;51.786;6.018;2023-06-10T05:04:24;15.07;;;13.67;;
23802;SDS011;12082;51.786;6.018;2023-06-10T05:06:49;15.43;;;13.93;;
23802;SDS011;12082;51.786;6.018;2023-06-10T05:09:15;15.83;;;14.33;;
23802;SDS011;12082;51.786;6.018;2023-06-10T05:11:41;15.57;;;13.97;;
23802;SDS011;12082;51.786;6.018;2023-06-10T05:14:07;15.30;;;13.80;;
23802;SDS011;12082;51.786;6.018;2023-06-10T05:16:32;20.87;;;13.87;;
23802;SDS011;12082;51.786;6.018;2023-06-10T05:18:58;15.10;;;13.63;;
23802;SDS011;12082;51.786;6.018;2023-06-10T05:21:23;16.83;;;14.10;;
23802;SDS011;12082;51.786;6.018;2023-06-10T05:23:49;15.33;;;13.80;;
23802;SDS011;12082;51.786;6.018;2023-06-10T05:26:15;15.17;;;13.77;;
23802;SDS011;12082;51.786;6.018;2023-06-10T05:28:41;16.77;;;13.43;;
23802;SDS011;12082;51.786;6.018;2023-06-10T05:31:06;16.47;;;13.63;;
23802;SDS011;12082;51.786;6.018;2023-06-10T05:33:32;15.37;;;13.77;;
23802;SDS011;12082;51.786;6.018;2023-06-10T05:35:57;15.67;;;13.13;;
23802;SDS011;12082;51.786;6.018;2023-06-10T05:38:23;13.47;;;12.20;;
23802;SDS011;12082;51.786;6.018;2023-06-10T05:40:48;13.70;;;12.30;;
23802;SDS011;12082;51.786;6.018;2023-06-10T05:43:14;15.80;;;12.30;;
23802;SDS011;12082;51.786;6.018;2023-06-10T05:45:41;15.93;;;14.60;;
23802;SDS011;12082;51.786;6.018;2023-06-10T05:48:07;20.00;;;18.30;;
23802;SDS011;12082;51.786;6.018;2023-06-10T05:50:33;20.77;;;18.83;;
23802;SDS011;12082;51.786;6.018;2023-06-10T05:53:03;21.13;;;19.43;;
23802;SDS011;12082;51.786;6.018;2023-06-10T05:55:31;19.63;;;17.63;;
23802;SDS011;12082;51.786;6.018;2023-06-10T05:58:00;18.27;;;16.60;;
23802;SDS011;12082;51.786;6.018;2023-06-10T06:00:26;16.57;;;15.03;;
23802;SDS011;12082;51.786;6.018;2023-06-10T06:02:52;16.20;;;14.60;;
23802;SDS011;12082;51.786;6.018;2023-06-10T06:05:19;13.83;;;12.47;;
23802;SDS011;12082;51.786;6.018;2023-06-10T06:07:44;14.30;;;12.77;;
23802;SDS011;12082;51.786;6.018;2023-06-10T06:10:10;15.67;;;14.33;;
23802;SDS011;12082;51.786;6.018;2023-06-10T06:12:36;15.17;;;13.97;;
23802;SDS011;12082;51.786;6.018;2023-06-10T06:15:01;12.17;;;10.97;;
23802;SDS011;12082;51.786;6.018;2023-06-10T06:17:28;15.00;;;11.17;;
23802;SDS011;12082;51.786;6.018;2023-06-10T06:19:53;13.57;;;10.83;;
23802;SDS011;12082;51.786;6.018;2023-06-10T06:22:19;12.10;;;9.50;;
23802;SDS011;12082;51.786;6.018;2023-06-10T06:24:47;12.57;;;10.07;;
23802;SDS011;12082;51.786;6.018;2023-06-10T06:27:14;13.90;;;10.33;;
23802;SDS011;12082;51.786;6.018;2023-06-10T06:29:40;14.40;;;10.27;;
23802;SDS011;12082;51.786;6.018;2023-06-10T06:32:05;13.63;;;11.33;;
23802;SDS011;12082;51.786;6.018;2023-06-10T06:34:31;9.90;;;8.90;;
23802;SDS011;12082;51.786;6.018;2023-06-10T06:36:58;10.90;;;9.90;;
23802;SDS011;12082;51.786;6.018;2023-06-10T06:39:23;13.70;;;10.43;;
23802;SDS011;12082;51.786;6.018;2023-06-10T06:41:49;14.53;;;11.23;;
23802;SDS011;12082;51.786;6.018;2023-06-10T06:44:15;16.70;;;15.10;;
23802;SDS011;12082;51.786;6.018;2023-06-10T06:46:40;26.10;;;23.70;;
23802;SDS011;12082;51.786;6.018;2023-06-10T06:49:06;28.40;;;26.30;;
23802;SDS011;12082;51.786;6.018;2023-06-10T06:51:31;25.50;;;23.77;;
23802;SDS011;12082;51.786;6.018;2023-06-10T06:53:57;24.60;;;22.90;;
23802;SDS011;12082;51.786;6.018;2023-06-10T06:56:24;24.93;;;23.23;;
23802;SDS011;12082;51.786;6.018;2023-06-10T06:58:49;26.87;;;25.00;;
23802;SDS011;12082;51.786;6.018;2023-06-10T07:01:15;27.10;;;25.07;;
23802;SDS011;12082;51.786;6.018;2023-06-10T07:03:41;27.57;;;25.33;;
23802;SDS011;12082;51.786;6.018;2023-06-10T07:06:06;28.53;;;26.43;;
23802;SDS011;12082;51.786;6.018;2023-06-10T07:08:32;27.43;;;25.83;;
23802;SDS011;12082;51.786;6.018;2023-06-10T07:10:57;26.67;;;24.87;;
23802;SDS011;12082;51.786;6.018;2023-06-10T07:13:23;23.67;;;21.87;;
23802;SDS011;12082;51.786;6.018;2023-06-10T07:15:48;22.53;;;20.73;;
23802;SDS011;12082;51.786;6.018;2023-06-10T07:18:15;24.30;;;22.70;;
23802;SDS011;12082;51.786;6.018;2023-06-10T07:20:42;25.83;;;23.83;;
23802;SDS011;12082;51.786;6.018;2023-06-10T07:23:07;22.90;;;21.20;;
23802;SDS011;12082;51.786;6.018;2023-06-10T07:25:33;23.77;;;22.20;;
23802;SDS011;12082;51.786;6.018;2023-06-10T07:27:58;23.35;;;21.85;;
23802;SDS011;12082;51.786;6.018;2023-06-10T07:30:24;22.17;;;20.67;;
23802;SDS011;12082;51.786;6.018;2023-06-10T07:32:50;19.63;;;18.13;;
23802;SDS011;12082;51.786;6.018;2023-06-10T07:35:16;20.92;;;18.60;;
23802;SDS011;12082;51.786;6.018;2023-06-10T07:37:42;19.88;;;18.42;;
23802;SDS011;12082;51.786;6.018;2023-06-10T07:40:07;19.08;;;17.75;;
23802;SDS011;12082;51.786;6.018;2023-06-10T07:42:34;19.30;;;17.85;;
23802;SDS011;12082;51.786;6.018;2023-06-10T07:45:01;18.77;;;17.33;;
23802;SDS011;12082;51.786;6.018;2023-06-10T07:47:28;17.73;;;16.20;;
23802;SDS011;12082;51.786;6.018;2023-06-10T07:49:54;17.40;;;15.48;;
23802;SDS011;12082;51.786;6.018;2023-06-10T07:52:19;17.45;;;16.25;;
23802;SDS011;12082;51.786;6.018;2023-06-10T07:54:45;16.70;;;15.35;;
23802;SDS011;12082;51.786;6.018;2023-06-10T07:57:11;17.48;;;15.75;;
23802;SDS011;12082;51.786;6.018;2023-06-10T07:59:36;15.32;;;13.88;;
23802;SDS011;12082;51.786;6.018;2023-06-10T08:02:02;16.13;;;14.85;;
23802;SDS011;12082;51.786;6.018;2023-06-10T08:04:28;14.82;;;13.68;;
23802;SDS011;12082;51.786;6.018;2023-06-10T08:06:55;15.85;;;14.60;;
23802;SDS011;12082;51.786;6.018;2023-06-10T08:09:21;14.98;;;13.73;;
23802;SDS011;12082;51.786;6.018;2023-06-10T08:11:48;13.35;;;12.13;;
23802;SDS011;12082;51.786;6.018;2023-06-10T08:14:13;14.32;;;13.05;;
23802;SDS011;12082;51.786;6.018;2023-06-10T08:16:39;17.63;;;13.68;;
23802;SDS011;12082;51.786;6.018;2023-06-10T08:19:05;14.93;;;13.63;;
23802;SDS011;12082;51.786;6.018;2023-06-10T08:21:30;16.00;;;14.90;;
23802;SDS011;12082;51.786;6.018;2023-06-10T08:23:56;14.85;;;13.55;;
23802;SDS011;12082;51.786;6.018;2023-06-10T08:26:22;14.40;;;13.40;;
23802;SDS011;12082;51.786;6.018;2023-06-10T08:28:48;15.52;;;14.13;;
23802;SDS011;12082;51.786;6.018;2023-06-10T08:31:14;14.10;;;12.77;;
23802;SDS011;12082;51.786;6.018;2023-06-10T08:33:40;17.23;;;15.65;;
23802;SDS011;12082;51.786;6.018;2023-06-10T08:36:07;15.95;;;14.60;;
23802;SDS011;12082;51.786;6.018;2023-06-10T08:38:32;13.23;;;11.90;;
23802;SDS011;12082;51.786;6.018;2023-06-10T08:40:59;13.95;;;12.55;;
23802;SDS011;12082;51.786;6.018;2023-06-10T08:45:51;14.50;;;13.20;;
23802;SDS011;12082;51.786;6.018;2023-06-10T08:48:22;15.85;;;14.32;;
23802;SDS011;12082;51.786;6.018;2023-06-10T08:50:48;14.18;;;12.73;;
23802;SDS011;12082;51.786;6.018;2023-06-10T08:53:17;14.32;;;12.98;;
23802;SDS011;12082;51.786;6.018;2023-06-10T08:55:44;14.07;;;12.98;;
23802;SDS011;12082;51.786;6.018;2023-06-10T08:58:16;14.98;;;13.63;;
23802;SDS011;12082;51.786;6.018;2023-06-10T09:00:42;15.10;;;13.82;;
23802;SDS011;12082;51.786;6.018;2023-06-10T09:03:08;15.35;;;14.15;;
23802;SDS011;12082;51.786;6.018;2023-06-10T09:05:34;15.30;;;13.75;;
23802;SDS011;12082;51.786;6.018;2023-06-10T09:08:01;15.77;;;14.00;;
23802;SDS011;12082;51.786;6.018;2023-06-10T09:10:27;17.15;;;13.07;;
23802;SDS011;12082;51.786;6.018;2023-06-10T09:12:54;14.88;;;13.25;;
23802;SDS011;12082;51.786;6.018;2023-06-10T09:15:20;15.50;;;14.27;;
23802;SDS011;12082;51.786;6.018;2023-06-10T09:17:46;14.27;;;13.02;;
23802;SDS011;12082;51.786;6.018;2023-06-10T09:20:12;13.63;;;12.52;;
23802;SDS011;12082;51.786;6.018;2023-06-10T09:22:37;14.38;;;13.10;;
23802;SDS011;12082;51.786;6.018;2023-06-10T09:25:07;15.73;;;12.15;;
23802;SDS011;12082;51.786;6.018;2023-06-10T09:28:08;14.98;;;13.57;;
23802;SDS011;12082;51.786;6.018;2023-06-10T09:30:29;15.43;;;14.13;;
23802;SDS011;12082;51.786;6.018;2023-06-10T09:32:56;14.10;;;13.05;;
23802;SDS011;12082;51.786;6.018;2023-06-10T09:35:23;15.45;;;14.10;;
23802;SDS011;12082;51.786;6.018;2023-06-10T09:37:51;15.32;;;13.85;;
23802;SDS011;12082;51.786;6.018;2023-06-10T09:40:18;14.88;;;12.57;;
23802;SDS011;12082;51.786;6.018;2023-06-10T09:42:44;14.88;;;11.68;;
23802;SDS011;12082;51.786;6.018;2023-06-10T09:45:10;13.18;;;12.18;;
23802;SDS011;12082;51.786;6.018;2023-06-10T09:47:35;14.07;;;13.10;;
23802;SDS011;12082;51.786;6.018;2023-06-10T09:50:01;13.40;;;12.23;;
23802;SDS011;12082;51.786;6.018;2023-06-10T09:52:27;13.73;;;12.40;;
23802;SDS011;12082;51.786;6.018;2023-06-10T09:54:55;15.60;;;12.90;;
23802;SDS011;12082;51.786;6.018;2023-06-10T09:57:25;14.60;;;13.20;;
23802;SDS011;12082;51.786;6.018;2023-06-10T09:59:54;14.65;;;13.35;;
23802;SDS011;12082;51.786;6.018;2023-06-10T10:02:20;14.68;;;13.48;;
23802;SDS011;12082;51.786;6.018;2023-06-10T10:04:46;14.82;;;13.77;;
23802;SDS011;12082;51.786;6.018;2023-06-10T10:07:12;14.73;;;13.63;;
23802;SDS011;12082;51.786;6.018;2023-06-10T10:09:41;15.00;;;13.65;;
23802;SDS011;12082;51.786;6.018;2023-06-10T10:12:09;15.25;;;13.85;;
23802;SDS011;12082;51.786;6.018;2023-06-10T10:14:37;15.13;;;13.93;;
23802;SDS011;12082;51.786;6.018;2023-06-10T10:17:09;16.48;;;14.65;;
23802;SDS011;12082;51.786;6.018;2023-06-10T10:19:56;16.10;;;14.63;;
23802;SDS011;12082;51.786;6.018;2023-06-10T10:22:26;15.17;;;13.70;;
23802;SDS011;12082;51.786;6.018;2023-06-10T10:24:59;16.50;;;15.23;;
23802;SDS011;12082;51.786;6.018;2023-06-10T10:27:28;16.77;;;15.50;;
23802;SDS011;12082;51.786;6.018;2023-06-10T10:30:09;16.93;;;15.73;;
23802;SDS011;12082;51.786;6.018;2023-06-10T10:32:40;16.13;;;14.90;;
23802;SDS011;12082;51.786;6.018;2023-06-10T10:35:17;22.47;;;14.90;;
23802;SDS011;12082;51.786;6.018;2023-06-10T10:37:46;16.50;;;15.40;;
23802;SDS011;12082;51.786;6.018;2023-06-10T10:40:12;16.73;;;15.07;;
23802;SDS011;12082;51.786;6.018;2023-06-10T10:42:39;15.40;;;14.27;;
23802;SDS011;12082;51.786;6.018;2023-06-10T10:45:06;15.03;;;13.93;;
23802;SDS011;12082;51.786;6.018;2023-06-10T10:47:33;14.57;;;13.57;;
23802;SDS011;12082;51.786;6.018;2023-06-10T10:50:01;15.90;;;14.48;;
23802;SDS011;12082;51.786;6.018;2023-06-10T10:52:28;15.57;;;14.27;;
23802;SDS011;12082;51.786;6.018;2023-06-10T10:55:19;14.83;;;13.83;;
23802;SDS011;12082;51.786;6.018;2023-06-10T10:57:44;16.17;;;14.77;;
23802;SDS011;12082;51.786;6.018;2023-06-10T11:05:31;15.53;;;14.07;;
23802;SDS011;12082;51.786;6.018;2023-06-10T11:08:03;15.73;;;14.27;;
23802;SDS011;12082;51.786;6.018;2023-06-10T11:10:30;16.30;;;15.03;;
23802;SDS011;12082;51.786;6.018;2023-06-10T11:13:12;14.93;;;13.93;;
23802;SDS011;12082;51.786;6.018;2023-06-10T11:15:46;15.40;;;14.23;;
23802;SDS011;12082;51.786;6.018;2023-06-10T11:31:19;14.90;;;13.90;;
23802;SDS011;12082;51.786;6.018;2023-06-10T11:34:07;14.67;;;13.17;;
23802;SDS011;12082;51.786;6.018;2023-06-10T11:36:36;14.57;;;13.57;;
23802;SDS011;12082;51.786;6.018;2023-06-10T11:39:05;14.15;;;13.15;;
23802;SDS011;12082;51.786;6.018;2023-06-10T11:41:31;14.07;;;12.97;;
23802;SDS011;12082;51.786;6.018;2023-06-10T11:44:03;14.00;;;12.65;;
23802;SDS011;12082;51.786;6.018;2023-06-10T11:46:38;13.33;;;12.23;;
23802;SDS011;12082;51.786;6.018;2023-06-10T11:49:05;13.53;;;12.63;;
23802;SDS011;12082;51.786;6.018;2023-06-10T11:51:35;14.13;;;12.80;;
23802;SDS011;12082;51.786;6.018;2023-06-10T11:54:02;13.40;;;12.40;;
23802;SDS011;12082;51.786;6.018;2023-06-10T11:56:29;12.60;;;11.60;;
23802;SDS011;12082;51.786;6.018;2023-06-10T11:58:57;13.65;;;12.65;;
23802;SDS011;12082;51.786;6.018;2023-06-10T12:01:31;14.20;;;12.97;;
23802;SDS011;12082;51.786;6.018;2023-06-10T12:04:08;13.40;;;12.00;;
23802;SDS011;12082;51.786;6.018;2023-06-10T12:06:40;12.93;;;11.93;;
23802;SDS011;12082;51.786;6.018;2023-06-10T12:11:43;13.98;;;12.98;;
23802;SDS011;12082;51.786;6.018;2023-06-10T12:14:10;13.73;;;12.68;;
23802;SDS011;12082;51.786;6.018;2023-06-10T12:16:35;14.10;;;12.77;;
23802;SDS011;12082;51.786;6.018;2023-06-10T12:19:02;13.10;;;12.10;;
23802;SDS011;12082;51.786;6.018;2023-06-10T12:21:29;14.25;;;12.23;;
23802;SDS011;12082;51.786;6.018;2023-06-10T12:26:42;13.13;;;12.02;;
23802;SDS011;12082;51.786;6.018;2023-06-10T12:31:56;13.13;;;11.95;;
23802;SDS011;12082;51.786;6.018;2023-06-10T12:34:32;11.95;;;11.15;;
23802;SDS011;12082;51.786;6.018;2023-06-10T12:37:00;12.95;;;11.73;;
23802;SDS011;12082;51.786;6.018;2023-06-10T12:39:26;13.02;;;11.93;;
23802;SDS011;12082;51.786;6.018;2023-06-10T12:41:52;13.68;;;12.65;;
23802;SDS011;12082;51.786;6.018;2023-06-10T12:44:18;12.48;;;11.48;;
23802;SDS011;12082;51.786;6.018;2023-06-10T12:46:55;15.55;;;11.48;;
23802;SDS011;12082;51.786;6.018;2023-06-10T12:49:21;12.18;;;11.18;;
23802;SDS011;12082;51.786;6.018;2023-06-10T12:51:47;12.35;;;11.35;;
23802;SDS011;12082;51.786;6.018;2023-06-10T12:54:13;11.85;;;10.82;;
23802;SDS011;12082;51.786;6.018;2023-06-10T12:56:39;12.02;;;11.23;;
23802;SDS011;12082;51.786;6.018;2023-06-10T12:59:04;12.98;;;12.02;;
23802;SDS011;12082;51.786;6.018;2023-06-10T13:01:30;14.98;;;12.63;;
23802;SDS011;12082;51.786;6.018;2023-06-10T13:03:56;12.73;;;11.70;;
23802;SDS011;12082;51.786;6.018;2023-06-10T13:06:22;13.88;;;12.80;;
23802;SDS011;12082;51.786;6.018;2023-06-10T13:08:48;12.35;;;11.45;;
23802;SDS011;12082;51.786;6.018;2023-06-10T13:11:13;12.50;;;11.25;;
23802;SDS011;12082;51.786;6.018;2023-06-10T13:13:39;12.27;;;11.18;;
23802;SDS011;12082;51.786;6.018;2023-06-10T13:16:05;13.07;;;11.93;;
23802;SDS011;12082;51.786;6.018;2023-06-10T13:18:30;12.32;;;11.20;;
23802;SDS011;12082;51.786;6.018;2023-06-10T13:21:02;11.85;;;10.85;;
23802;SDS011;12082;51.786;6.018;2023-06-10T13:23:31;13.73;;;11.40;;
23802;SDS011;12082;51.786;6.018;2023-06-10T13:25:57;11.63;;;10.68;;
23802;SDS011;12082;51.786;6.018;2023-06-10T13:28:22;12.05;;;10.98;;
23802;SDS011;12082;51.786;6.018;2023-06-10T13:30:48;12.85;;;11.70;;
23802;SDS011;12082;51.786;6.018;2023-06-10T13:33:14;10.98;;;10.18;;
23802;SDS011;12082;51.786;6.018;2023-06-10T13:35:39;12.35;;;11.02;;
23802;SDS011;12082;51.786;6.018;2023-06-10T13:38:06;12.32;;;11.15;;
23802;SDS011;12082;51.786;6.018;2023-06-10T13:40:32;11.75;;;10.85;;
23802;SDS011;12082;51.786;6.018;2023-06-10T13:42:57;12.20;;;11.27;;
23802;SDS011;12082;51.786;6.018;2023-06-10T13:45:23;11.60;;;10.45;;
23802;SDS011;12082;51.786;6.018;2023-06-10T13:47:49;12.30;;;11.23;;
23802;SDS011;12082;51.786;6.018;2023-06-10T13:50:15;12.55;;;11.43;;
23802;SDS011;12082;51.786;6.018;2023-06-10T13:52:41;12.80;;;11.70;;
23802;SDS011;12082;51.786;6.018;2023-06-10T13:55:06;12.15;;;11.15;;
23802;SDS011;12082;51.786;6.018;2023-06-10T13:57:32;11.95;;;10.77;;
23802;SDS011;12082;51.786;6.018;2023-06-10T13:59:58;11.55;;;10.45;;
23802;SDS011;12082;51.786;6.018;2023-06-10T14:02:23;11.85;;;10.90;;
23802;SDS011;12082;51.786;6.018;2023-06-10T14:04:49;11.40;;;10.60;;
23802;SDS011;12082;51.786;6.018;2023-06-10T14:07:14;15.70;;;10.30;;
23802;SDS011;12082;51.786;6.018;2023-06-10T14:09:40;11.30;;;10.52;;
23802;SDS011;12082;51.786;6.018;2023-06-10T14:12:06;11.13;;;10.25;;
23802;SDS011;12082;51.786;6.018;2023-06-10T14:14:32;11.35;;;10.55;;
23802;SDS011;12082;51.786;6.018;2023-06-10T14:16:58;11.50;;;10.50;;
23802;SDS011;12082;51.786;6.018;2023-06-10T14:19:24;11.25;;;10.20;;
23802;SDS011;12082;51.786;6.018;2023-06-10T14:21:50;11.35;;;10.27;;
23802;SDS011;12082;51.786;6.018;2023-06-10T14:24:15;14.15;;;10.57;;
23802;SDS011;12082;51.786;6.018;2023-06-10T14:26:41;12.45;;;11.10;;
23802;SDS011;12082;51.786;6.018;2023-06-10T14:29:06;11.05;;;10.05;;
23802;SDS011;12082;51.786;6.018;2023-06-10T14:31:33;11.27;;;10.10;;
23802;SDS011;12082;51.786;6.018;2023-06-10T14:33:59;10.85;;;9.85;;
23802;SDS011;12082;51.786;6.018;2023-06-10T14:36:24;10.73;;;9.80;;
23802;SDS011;12082;51.786;6.018;2023-06-10T14:38:50;10.48;;;9.77;;
23802;SDS011;12082;51.786;6.018;2023-06-10T14:41:16;12.68;;;11.30;;
23802;SDS011;12082;51.786;6.018;2023-06-10T14:43:41;12.23;;;11.07;;
23802;SDS011;12082;51.786;6.018;2023-06-10T14:46:07;13.65;;;12.18;;
23802;SDS011;12082;51.786;6.018;2023-06-10T14:48:32;11.95;;;10.95;;
23802;SDS011;12082;51.786;6.018;2023-06-10T14:50:58;11.95;;;10.88;;
23802;SDS011;12082;51.786;6.018;2023-06-10T14:53:24;12.07;;;10.85;;
23802;SDS011;12082;51.786;6.018;2023-06-10T14:55:49;11.15;;;10.35;;